sensor_id;sensor_type;location;lat;lon;timestamp;temperature;humidity
38118;DHT22;23928;47.562;7.508;2023-02-28T00:00:03;1.20;99.90
38118;DHT22;23928;47.562;7.508;2023-02-28T00:02:40;1.10;99.90
38118;DHT22;23928;47.562;7.508;2023-02-28T00:05:06;1.20;99.90
38118;DHT22;23928;47.562;7.508;2023-02-28T00:07:33;1.10;99.90
38118;DHT22;23928;47.562;7.508;2023-02-28T00:09:58;1.10;99.90
38118;DHT22;23928;47.562;7.508;2023-02-28T00:12:25;1.20;99.90
38118;DHT22;23928;47.562;7.508;2023-02-28T00:14:50;1.20;99.90
38118;DHT22;23928;47.562;7.508;2023-02-28T00:17:16;1.10;99.90
38118;DHT22;23928;47.562;7.508;2023-02-28T00:19:52;1.20;99.90
38118;DHT22;23928;47.562;7.508;2023-02-28T00:22:20;1.10;99.90
38118;DHT22;23928;47.562;7.508;2023-02-28T00:24:46;1.20;99.90
38118;DHT22;23928;47.562;7.508;2023-02-28T00:27:13;1.10;99.90
38118;DHT22;23928;47.562;7.508;2023-02-28T00:29:39;1.10;99.90
38118;DHT22;23928;47.562;7.508;2023-02-28T00:32:05;1.10;99.90
38118;DHT22;23928;47.562;7.508;2023-02-28T00:34:31;1.00;99.90
38118;DHT22;23928;47.562;7.508;2023-02-28T00:36:57;1.10;99.90
38118;DHT22;23928;47.562;7.508;2023-02-28T00:39:23;1.20;99.90
38118;DHT22;23928;47.562;7.508;2023-02-28T00:41:49;1.10;99.90
38118;DHT22;23928;47.562;7.508;2023-02-28T00:44:15;1.10;99.90
38118;DHT22;23928;47.562;7.508;2023-02-28T00:46:40;1.00;99.90
38118;DHT22;23928;47.562;7.508;2023-02-28T00:49:06;1.20;99.90
38118;DHT22;23928;47.562;7.508;2023-02-28T00:51:31;1.20;99.90
38118;DHT22;23928;47.562;7.508;2023-02-28T00:53:57;1.20;99.90
38118;DHT22;23928;47.562;7.508;2023-02-28T00:56:22;1.20;99.90
38118;DHT22;23928;47.562;7.508;2023-02-28T00:58:48;1.10;99.90
38118;DHT22;23928;47.562;7.508;2023-02-28T01:01:14;1.10;99.90
38118;DHT22;23928;47.562;7.508;2023-02-28T01:03:39;1.20;99.90
38118;DHT22;23928;47.562;7.508;2023-02-28T01:06:05;1.20;99.90
38118;DHT22;23928;47.562;7.508;2023-02-28T01:08:31;1.10;99.90
38118;DHT22;23928;47.562;7.508;2023-02-28T01:10:57;1.10;99.90
38118;DHT22;23928;47.562;7.508;2023-02-28T01:13:23;1.10;99.90
38118;DHT22;23928;47.562;7.508;2023-02-28T01:15:54;1.10;99.90
38118;DHT22;23928;47.562;7.508;2023-02-28T01:18:21;1.00;99.90
38118;DHT22;23928;47.562;7.508;2023-02-28T01:20:47;1.10;99.90
38118;DHT22;23928;47.562;7.508;2023-02-28T01:23:12;1.20;99.90
38118;DHT22;23928;47.562;7.508;2023-02-28T01:25:38;1.00;99.90
38118;DHT22;23928;47.562;7.508;2023-02-28T01:28:04;0.90;99.90
38118;DHT22;23928;47.562;7.508;2023-02-28T01:30:31;0.90;99.90
38118;DHT22;23928;47.562;7.508;2023-02-28T01:32:57;1.00;99.90
38118;DHT22;23928;47.562;7.508;2023-02-28T01:35:22;1.00;99.90
38118;DHT22;23928;47.562;7.508;2023-02-28T01:37:48;0.90;99.90
38118;DHT22;23928;47.562;7.508;2023-02-28T01:40:14;0.80;99.90
38118;DHT22;23928;47.562;7.508;2023-02-28T01:42:39;0.80;99.90
38118;DHT22;23928;47.562;7.508;2023-02-28T01:45:27;1.00;99.90
38118;DHT22;23928;47.562;7.508;2023-02-28T01:48:03;0.90;99.90
38118;DHT22;23928;47.562;7.508;2023-02-28T01:50:33;0.90;99.90
38118;DHT22;23928;47.562;7.508;2023-02-28T01:53:02;0.90;99.90
38118;DHT22;23928;47.562;7.508;2023-02-28T01:55:30;1.00;99.90
38118;DHT22;23928;47.562;7.508;2023-02-28T01:57:59;1.10;99.90
38118;DHT22;23928;47.562;7.508;2023-02-28T02:00:26;1.00;99.90
38118;DHT22;23928;47.562;7.508;2023-02-28T02:02:57;0.90;99.90
38118;DHT22;23928;47.562;7.508;2023-02-28T02:05:25;0.90;99.90
38118;DHT22;23928;47.562;7.508;2023-02-28T02:07:57;0.90;99.90
38118;DHT22;23928;47.562;7.508;2023-02-28T02:10:46;1.10;99.90
38118;DHT22;23928;47.562;7.508;2023-02-28T02:14:16;0.90;99.90
38118;DHT22;23928;47.562;7.508;2023-02-28T02:38:49;1.10;99.90
38118;DHT22;23928;47.562;7.508;2023-02-28T02:46:43;0.90;99.90
38118;DHT22;23928;47.562;7.508;2023-02-28T02:49:14;0.90;99.90
38118;DHT22;23928;47.562;7.508;2023-02-28T02:51:41;0.80;99.90
38118;DHT22;23928;47.562;7.508;2023-02-28T02:54:21;0.70;99.90
38118;DHT22;23928;47.562;7.508;2023-02-28T02:56:49;0.40;99.90
38118;DHT22;23928;47.562;7.508;2023-02-28T02:59:18;0.30;99.90
38118;DHT22;23928;47.562;7.508;2023-02-28T03:01:50;0.50;99.90
38118;DHT22;23928;47.562;7.508;2023-02-28T03:04:23;0.30;99.90
38118;DHT22;23928;47.562;7.508;2023-02-28T03:06:51;0.30;99.90
38118;DHT22;23928;47.562;7.508;2023-02-28T03:09:21;0.40;99.90
38118;DHT22;23928;47.562;7.508;2023-02-28T03:11:47;0.50;99.90
38118;DHT22;23928;47.562;7.508;2023-02-28T03:22:22;0.20;99.90
38118;DHT22;23928;47.562;7.508;2023-02-28T03:30:27;0.00;99.90
38118;DHT22;23928;47.562;7.508;2023-02-28T03:35:32;0.10;99.90
38118;DHT22;23928;47.562;7.508;2023-02-28T03:38:08;0.00;99.90
38118;DHT22;23928;47.562;7.508;2023-02-28T03:40:41;-0.10;99.90
38118;DHT22;23928;47.562;7.508;2023-02-28T03:43:12;-0.10;99.90
38118;DHT22;23928;47.562;7.508;2023-02-28T03:45:41;-0.40;99.90
38118;DHT22;23928;47.562;7.508;2023-02-28T03:48:13;-0.70;99.90
38118;DHT22;23928;47.562;7.508;2023-02-28T03:50:42;-0.80;99.90
38118;DHT22;23928;47.562;7.508;2023-02-28T03:53:17;-0.70;99.90
38118;DHT22;23928;47.562;7.508;2023-02-28T03:55:50;-0.80;99.90
38118;DHT22;23928;47.562;7.508;2023-02-28T04:03:57;-1.10;99.90
38118;DHT22;23928;47.562;7.508;2023-02-28T04:06:23;-0.90;99.90
38118;DHT22;23928;47.562;7.508;2023-02-28T04:08:50;-1.10;99.90
38118;DHT22;23928;47.562;7.508;2023-02-28T04:11:23;-1.00;99.90
38118;DHT22;23928;47.562;7.508;2023-02-28T04:13:49;-1.00;99.90
38118;DHT22;23928;47.562;7.508;2023-02-28T04:16:15;-1.00;99.90
38118;DHT22;23928;47.562;7.508;2023-02-28T04:18:41;-1.10;99.90
38118;DHT22;23928;47.562;7.508;2023-02-28T04:21:09;-0.90;99.90
38118;DHT22;23928;47.562;7.508;2023-02-28T04:23:34;-0.90;99.90
38118;DHT22;23928;47.562;7.508;2023-02-28T04:26:00;-0.80;99.90
38118;DHT22;23928;47.562;7.508;2023-02-28T04:28:26;-1.00;99.90
38118;DHT22;23928;47.562;7.508;2023-02-28T04:31:03;-0.80;99.90
38118;DHT22;23928;47.562;7.508;2023-02-28T04:33:31;-0.80;99.90
38118;DHT22;23928;47.562;7.508;2023-02-28T04:36:00;-1.10;99.90
38118;DHT22;23928;47.562;7.508;2023-02-28T04:38:26;-1.20;99.90
38118;DHT22;23928;47.562;7.508;2023-02-28T04:40:51;-1.10;99.90
38118;DHT22;23928;47.562;7.508;2023-02-28T04:43:17;-1.30;99.90
38118;DHT22;23928;47.562;7.508;2023-02-28T04:45:42;-1.30;99.90
38118;DHT22;23928;47.562;7.508;2023-02-28T04:48:08;-1.20;99.90
38118;DHT22;23928;47.562;7.508;2023-02-28T04:50:33;-1.30;99.90
38118;DHT22;23928;47.562;7.508;2023-02-28T04:52:59;-1.10;99.90
38118;DHT22;23928;47.562;7.508;2023-02-28T04:55:24;-1.20;99.90
38118;DHT22;23928;47.562;7.508;2023-02-28T04:57:50;-1.30;99.90
38118;DHT22;23928;47.562;7.508;2023-02-28T05:00:16;-1.40;99.90
38118;DHT22;23928;47.562;7.508;2023-02-28T05:02:42;-1.50;99.90
38118;DHT22;23928;47.562;7.508;2023-02-28T05:05:08;-1.30;99.90
38118;DHT22;23928;47.562;7.508;2023-02-28T05:07:33;-1.40;99.90
38118;DHT22;23928;47.562;7.508;2023-02-28T05:09:59;-1.30;99.90
38118;DHT22;23928;47.562;7.508;2023-02-28T05:12:25;-1.40;99.90
38118;DHT22;23928;47.562;7.508;2023-02-28T05:14:50;-1.40;99.90
38118;DHT22;23928;47.562;7.508;2023-02-28T05:17:16;-1.30;99.90
38118;DHT22;23928;47.562;7.508;2023-02-28T05:19:42;-1.30;99.90
38118;DHT22;23928;47.562;7.508;2023-02-28T05:22:13;-1.30;99.90
38118;DHT22;23928;47.562;7.508;2023-02-28T05:24:40;-1.40;99.90
38118;DHT22;23928;47.562;7.508;2023-02-28T05:27:08;-1.30;99.90
38118;DHT22;23928;47.562;7.508;2023-02-28T05:29:34;-1.30;99.90
38118;DHT22;23928;47.562;7.508;2023-02-28T05:31:59;-1.30;99.90
38118;DHT22;23928;47.562;7.508;2023-02-28T05:34:25;-1.20;99.90
38118;DHT22;23928;47.562;7.508;2023-02-28T05:36:50;-1.00;99.90
38118;DHT22;23928;47.562;7.508;2023-02-28T05:39:16;-1.00;99.90
38118;DHT22;23928;47.562;7.508;2023-02-28T05:41:42;-1.00;99.90
38118;DHT22;23928;47.562;7.508;2023-02-28T05:44:08;-0.90;99.90
38118;DHT22;23928;47.562;7.508;2023-02-28T05:46:34;-0.90;99.90
38118;DHT22;23928;47.562;7.508;2023-02-28T05:49:00;-1.00;99.90
38118;DHT22;23928;47.562;7.508;2023-02-28T05:51:26;-1.20;99.90
38118;DHT22;23928;47.562;7.508;2023-02-28T05:53:52;-1.40;99.90
38118;DHT22;23928;47.562;7.508;2023-02-28T05:56:17;-1.20;99.90
38118;DHT22;23928;47.562;7.508;2023-02-28T05:58:43;-1.20;99.90
38118;DHT22;23928;47.562;7.508;2023-02-28T06:01:31;-1.20;99.90
38118;DHT22;23928;47.562;7.508;2023-02-28T06:04:02;-1.40;99.90
38118;DHT22;23928;47.562;7.508;2023-02-28T06:06:28;-1.20;99.90
38118;DHT22;23928;47.562;7.508;2023-02-28T06:08:55;-0.90;99.90
38118;DHT22;23928;47.562;7.508;2023-02-28T06:11:21;-0.70;99.90
38118;DHT22;23928;47.562;7.508;2023-02-28T06:13:47;-0.90;99.90
38118;DHT22;23928;47.562;7.508;2023-02-28T06:16:13;-1.30;99.90
38118;DHT22;23928;47.562;7.508;2023-02-28T06:18:39;-1.50;99.90
38118;DHT22;23928;47.562;7.508;2023-02-28T06:21:05;-1.50;99.90
38118;DHT22;23928;47.562;7.508;2023-02-28T06:23:30;-1.40;99.90
38118;DHT22;23928;47.562;7.508;2023-02-28T06:25:56;-1.10;99.90
38118;DHT22;23928;47.562;7.508;2023-02-28T06:28:25;-1.40;99.90
38118;DHT22;23928;47.562;7.508;2023-02-28T06:30:51;-1.30;99.90
38118;DHT22;23928;47.562;7.508;2023-02-28T06:33:17;-1.30;99.90
38118;DHT22;23928;47.562;7.508;2023-02-28T06:35:44;-1.30;99.90
38118;DHT22;23928;47.562;7.508;2023-02-28T06:38:10;-1.50;99.90
38118;DHT22;23928;47.562;7.508;2023-02-28T06:40:36;-1.40;99.90
38118;DHT22;23928;47.562;7.508;2023-02-28T06:43:02;-1.60;99.90
38118;DHT22;23928;47.562;7.508;2023-02-28T06:45:28;-1.40;99.90
38118;DHT22;23928;47.562;7.508;2023-02-28T06:47:54;-1.30;99.90
38118;DHT22;23928;47.562;7.508;2023-02-28T06:50:20;-1.30;99.90
38118;DHT22;23928;47.562;7.508;2023-02-28T06:52:46;-1.50;99.90
38118;DHT22;23928;47.562;7.508;2023-02-28T06:55:12;-1.40;99.90
38118;DHT22;23928;47.562;7.508;2023-02-28T06:57:38;-1.40;99.90
38118;DHT22;23928;47.562;7.508;2023-02-28T07:00:07;-1.40;99.90
38118;DHT22;23928;47.562;7.508;2023-02-28T07:02:34;-1.40;99.90
38118;DHT22;23928;47.562;7.508;2023-02-28T07:04:59;-1.30;99.90
38118;DHT22;23928;47.562;7.508;2023-02-28T07:07:25;-1.20;99.90
38118;DHT22;23928;47.562;7.508;2023-02-28T07:09:50;-1.10;99.90
38118;DHT22;23928;47.562;7.508;2023-02-28T07:12:16;-1.10;99.90
38118;DHT22;23928;47.562;7.508;2023-02-28T07:14:42;-1.20;99.90
38118;DHT22;23928;47.562;7.508;2023-02-28T07:17:08;-1.40;99.90
38118;DHT22;23928;47.562;7.508;2023-02-28T07:19:34;-1.30;99.90
38118;DHT22;23928;47.562;7.508;2023-02-28T07:22:00;-1.00;99.90
38118;DHT22;23928;47.562;7.508;2023-02-28T07:24:26;-1.00;99.90
38118;DHT22;23928;47.562;7.508;2023-02-28T07:26:53;-1.00;99.90
38118;DHT22;23928;47.562;7.508;2023-02-28T07:29:19;-1.20;99.90
38118;DHT22;23928;47.562;7.508;2023-02-28T07:31:45;-1.30;99.90
38118;DHT22;23928;47.562;7.508;2023-02-28T07:34:12;-1.10;99.90
38118;DHT22;23928;47.562;7.508;2023-02-28T07:36:38;-1.00;99.90
38118;DHT22;23928;47.562;7.508;2023-02-28T07:39:03;-1.00;99.90
38118;DHT22;23928;47.562;7.508;2023-02-28T07:41:30;-1.10;99.90
38118;DHT22;23928;47.562;7.508;2023-02-28T07:43:58;-1.10;99.90
38118;DHT22;23928;47.562;7.508;2023-02-28T07:46:25;-1.00;99.90
38118;DHT22;23928;47.562;7.508;2023-02-28T07:48:51;-0.90;99.90
38118;DHT22;23928;47.562;7.508;2023-02-28T07:51:18;-0.80;99.90
38118;DHT22;23928;47.562;7.508;2023-02-28T07:53:44;-0.80;99.90
38118;DHT22;23928;47.562;7.508;2023-02-28T07:56:09;-0.90;99.90
38118;DHT22;23928;47.562;7.508;2023-02-28T07:58:36;-1.00;99.90
38118;DHT22;23928;47.562;7.508;2023-02-28T08:01:09;-1.10;99.90
38118;DHT22;23928;47.562;7.508;2023-02-28T08:03:35;-1.10;99.90
38118;DHT22;23928;47.562;7.508;2023-02-28T08:06:06;-1.10;99.90
38118;DHT22;23928;47.562;7.508;2023-02-28T08:08:32;-1.10;99.90
38118;DHT22;23928;47.562;7.508;2023-02-28T08:11:01;-1.20;99.90
38118;DHT22;23928;47.562;7.508;2023-02-28T08:15:54;-1.00;99.90
38118;DHT22;23928;47.562;7.508;2023-02-28T08:18:20;-0.90;99.90
38118;DHT22;23928;47.562;7.508;2023-02-28T08:20:46;-0.90;99.90
38118;DHT22;23928;47.562;7.508;2023-02-28T08:23:12;-0.80;99.90
38118;DHT22;23928;47.562;7.508;2023-02-28T08:25:38;-0.80;99.90
38118;DHT22;23928;47.562;7.508;2023-02-28T08:28:03;-1.00;99.90
38118;DHT22;23928;47.562;7.508;2023-02-28T08:30:29;-0.70;99.90
38118;DHT22;23928;47.562;7.508;2023-02-28T08:32:55;-0.70;99.90
38118;DHT22;23928;47.562;7.508;2023-02-28T08:35:21;-0.80;99.90
38118;DHT22;23928;47.562;7.508;2023-02-28T08:37:49;-0.80;99.90
38118;DHT22;23928;47.562;7.508;2023-02-28T08:40:15;-0.90;99.90
38118;DHT22;23928;47.562;7.508;2023-02-28T08:42:44;-0.80;99.90
38118;DHT22;23928;47.562;7.508;2023-02-28T08:45:11;-0.80;99.90
38118;DHT22;23928;47.562;7.508;2023-02-28T08:47:37;-0.70;99.90
38118;DHT22;23928;47.562;7.508;2023-02-28T08:50:03;-0.70;99.90
38118;DHT22;23928;47.562;7.508;2023-02-28T08:52:29;-0.80;99.90
38118;DHT22;23928;47.562;7.508;2023-02-28T08:54:55;-0.70;99.90
38118;DHT22;23928;47.562;7.508;2023-02-28T08:57:21;-0.70;99.90
38118;DHT22;23928;47.562;7.508;2023-02-28T08:59:46;-0.80;99.90
38118;DHT22;23928;47.562;7.508;2023-02-28T09:02:13;-0.70;99.90
38118;DHT22;23928;47.562;7.508;2023-02-28T09:04:40;-0.80;99.90
38118;DHT22;23928;47.562;7.508;2023-02-28T09:07:06;-0.60;99.90
38118;DHT22;23928;47.562;7.508;2023-02-28T09:09:31;-0.70;99.90
38118;DHT22;23928;47.562;7.508;2023-02-28T09:11:57;-0.50;99.90
38118;DHT22;23928;47.562;7.508;2023-02-28T09:14:23;-0.60;99.90
38118;DHT22;23928;47.562;7.508;2023-02-28T09:16:48;-0.60;99.90
38118;DHT22;23928;47.562;7.508;2023-02-28T09:19:14;-0.70;99.90
38118;DHT22;23928;47.562;7.508;2023-02-28T09:21:40;-0.30;99.90
38118;DHT22;23928;47.562;7.508;2023-02-28T09:24:06;-0.40;99.90
38118;DHT22;23928;47.562;7.508;2023-02-28T09:26:32;-0.70;99.90
38118;DHT22;23928;47.562;7.508;2023-02-28T09:28:57;-0.40;99.90
38118;DHT22;23928;47.562;7.508;2023-02-28T09:31:27;-0.10;99.90
38118;DHT22;23928;47.562;7.508;2023-02-28T09:33:55;-0.30;99.90
38118;DHT22;23928;47.562;7.508;2023-02-28T09:36:22;-0.30;99.90
38118;DHT22;23928;47.562;7.508;2023-02-28T09:38:48;0.00;99.90
38118;DHT22;23928;47.562;7.508;2023-02-28T09:41:21;0.10;99.90
38118;DHT22;23928;47.562;7.508;2023-02-28T09:43:51;0.10;99.90
38118;DHT22;23928;47.562;7.508;2023-02-28T09:49:11;0.10;99.90
38118;DHT22;23928;47.562;7.508;2023-02-28T09:51:57;0.10;99.90
38118;DHT22;23928;47.562;7.508;2023-02-28T09:54:26;0.20;99.90
38118;DHT22;23928;47.562;7.508;2023-02-28T09:59:42;0.00;99.90
38118;DHT22;23928;47.562;7.508;2023-02-28T10:05:12;0.00;99.90
38118;DHT22;23928;47.562;7.508;2023-02-28T10:08:18;0.10;99.90
38118;DHT22;23928;47.562;7.508;2023-02-28T10:10:51;0.30;99.90
38118;DHT22;23928;47.562;7.508;2023-02-28T10:13:32;0.30;99.90
38118;DHT22;23928;47.562;7.508;2023-02-28T10:16:03;0.30;99.90
38118;DHT22;23928;47.562;7.508;2023-02-28T10:18:40;0.30;99.90
38118;DHT22;23928;47.562;7.508;2023-02-28T10:21:36;0.40;99.90
38118;DHT22;23928;47.562;7.508;2023-02-28T10:26:43;0.50;99.90
38118;DHT22;23928;47.562;7.508;2023-02-28T10:29:10;0.50;99.90
38118;DHT22;23928;47.562;7.508;2023-02-28T10:31:36;0.50;99.90
38118;DHT22;23928;47.562;7.508;2023-02-28T10:34:03;0.50;99.90
38118;DHT22;23928;47.562;7.508;2023-02-28T10:36:29;0.30;99.90
38118;DHT22;23928;47.562;7.508;2023-02-28T10:38:55;0.40;99.90
38118;DHT22;23928;47.562;7.508;2023-02-28T10:41:30;0.60;99.90
38118;DHT22;23928;47.562;7.508;2023-02-28T10:44:20;0.80;99.90
38118;DHT22;23928;47.562;7.508;2023-02-28T10:46:46;0.80;99.90
38118;DHT22;23928;47.562;7.508;2023-02-28T10:49:20;1.00;99.90
38118;DHT22;23928;47.562;7.508;2023-02-28T10:51:47;1.00;99.90
38118;DHT22;23928;47.562;7.508;2023-02-28T10:54:22;0.90;99.90
38118;DHT22;23928;47.562;7.508;2023-02-28T10:57:18;1.00;99.90
38118;DHT22;23928;47.562;7.508;2023-02-28T10:59:44;0.90;99.90
38118;DHT22;23928;47.562;7.508;2023-02-28T11:02:32;1.10;99.90
38118;DHT22;23928;47.562;7.508;2023-02-28T11:04:58;1.20;99.90
38118;DHT22;23928;47.562;7.508;2023-02-28T11:07:26;0.90;99.90
38118;DHT22;23928;47.562;7.508;2023-02-28T11:09:55;1.00;99.90
38118;DHT22;23928;47.562;7.508;2023-02-28T11:12:39;1.10;99.90
38118;DHT22;23928;47.562;7.508;2023-02-28T11:15:28;1.10;99.90
38118;DHT22;23928;47.562;7.508;2023-02-28T11:17:55;0.90;99.90
38118;DHT22;23928;47.562;7.508;2023-02-28T11:20:24;1.00;99.90
38118;DHT22;23928;47.562;7.508;2023-02-28T11:22:50;1.10;99.90
38118;DHT22;23928;47.562;7.508;2023-02-28T11:25:26;1.40;99.90
38118;DHT22;23928;47.562;7.508;2023-02-28T11:27:57;1.30;99.90
38118;DHT22;23928;47.562;7.508;2023-02-28T11:32:56;1.50;99.90
38118;DHT22;23928;47.562;7.508;2023-02-28T11:35:33;1.60;99.90
38118;DHT22;23928;47.562;7.508;2023-02-28T11:38:01;2.10;99.90
38118;DHT22;23928;47.562;7.508;2023-02-28T11:40:38;2.40;99.90
38118;DHT22;23928;47.562;7.508;2023-02-28T11:43:18;2.00;99.90
38118;DHT22;23928;47.562;7.508;2023-02-28T11:46:06;1.80;99.90
38118;DHT22;23928;47.562;7.508;2023-02-28T11:48:40;1.60;99.90
38118;DHT22;23928;47.562;7.508;2023-02-28T11:51:26;1.90;99.90
38118;DHT22;23928;47.562;7.508;2023-02-28T11:54:17;2.00;99.90
38118;DHT22;23928;47.562;7.508;2023-02-28T12:02:17;1.90;99.90
38118;DHT22;23928;47.562;7.508;2023-02-28T12:04:51;2.00;99.90
38118;DHT22;23928;47.562;7.508;2023-02-28T12:10:29;2.10;99.90
38118;DHT22;23928;47.562;7.508;2023-02-28T12:13:23;2.20;99.90
38118;DHT22;23928;47.562;7.508;2023-02-28T12:16:15;2.20;99.90
38118;DHT22;23928;47.562;7.508;2023-02-28T12:19:13;2.50;99.90
38118;DHT22;23928;47.562;7.508;2023-02-28T12:26:53;2.30;99.90
38118;DHT22;23928;47.562;7.508;2023-02-28T12:32:23;2.50;99.90
38118;DHT22;23928;47.562;7.508;2023-02-28T12:35:28;2.40;99.90
38118;DHT22;23928;47.562;7.508;2023-02-28T12:38:17;2.50;99.90
38118;DHT22;23928;47.562;7.508;2023-02-28T12:40:50;2.30;99.90
38118;DHT22;23928;47.562;7.508;2023-02-28T12:43:18;2.40;99.90
38118;DHT22;23928;47.562;7.508;2023-02-28T12:46:02;2.50;99.90
38118;DHT22;23928;47.562;7.508;2023-02-28T12:48:44;2.50;99.90
38118;DHT22;23928;47.562;7.508;2023-02-28T12:51:12;2.40;99.90
38118;DHT22;23928;47.562;7.508;2023-02-28T12:56:33;2.30;99.90
38118;DHT22;23928;47.562;7.508;2023-02-28T12:59:13;2.30;99.90
38118;DHT22;23928;47.562;7.508;2023-02-28T13:07:36;2.30;99.90
38118;DHT22;23928;47.562;7.508;2023-02-28T13:10:06;2.30;99.90
38118;DHT22;23928;47.562;7.508;2023-02-28T13:12:33;2.60;99.90
38118;DHT22;23928;47.562;7.508;2023-02-28T13:15:08;2.80;99.90
38118;DHT22;23928;47.562;7.508;2023-02-28T13:17:41;2.70;99.90
38118;DHT22;23928;47.562;7.508;2023-02-28T13:20:23;2.80;99.90
38118;DHT22;23928;47.562;7.508;2023-02-28T13:22:53;2.80;99.90
38118;DHT22;23928;47.562;7.508;2023-02-28T13:27:50;2.90;99.90
38118;DHT22;23928;47.562;7.508;2023-02-28T13:35:50;3.10;99.90
38118;DHT22;23928;47.562;7.508;2023-02-28T13:38:36;3.00;99.90
38118;DHT22;23928;47.562;7.508;2023-02-28T13:44:16;2.80;99.90
38118;DHT22;23928;47.562;7.508;2023-02-28T13:55:18;2.90;99.90
38118;DHT22;23928;47.562;7.508;2023-02-28T13:58:09;3.10;99.90
38118;DHT22;23928;47.562;7.508;2023-02-28T14:06:14;2.90;99.90
38118;DHT22;23928;47.562;7.508;2023-02-28T14:09:03;3.00;99.90
38118;DHT22;23928;47.562;7.508;2023-02-28T14:11:39;3.20;99.90
38118;DHT22;23928;47.562;7.508;2023-02-28T14:14:06;3.00;99.90
38118;DHT22;23928;47.562;7.508;2023-02-28T14:16:44;3.00;99.90
38118;DHT22;23928;47.562;7.508;2023-02-28T14:27:32;3.10;99.90
38118;DHT22;23928;47.562;7.508;2023-02-28T14:35:50;3.10;99.90
38118;DHT22;23928;47.562;7.508;2023-02-28T14:38:22;3.10;99.90
38118;DHT22;23928;47.562;7.508;2023-02-28T14:40:52;3.20;99.90
38118;DHT22;23928;47.562;7.508;2023-02-28T14:43:23;3.20;99.90
38118;DHT22;23928;47.562;7.508;2023-02-28T14:45:58;3.40;99.90
38118;DHT22;23928;47.562;7.508;2023-02-28T14:48:25;3.20;99.90
38118;DHT22;23928;47.562;7.508;2023-02-28T14:50:55;3.30;99.90
38118;DHT22;23928;47.562;7.508;2023-02-28T14:53:25;3.00;99.90
38118;DHT22;23928;47.562;7.508;2023-02-28T14:55:51;3.00;99.90
38118;DHT22;23928;47.562;7.508;2023-02-28T14:58:27;3.10;99.90
38118;DHT22;23928;47.562;7.508;2023-02-28T15:00:55;3.10;99.90
38118;DHT22;23928;47.562;7.508;2023-02-28T15:03:23;2.90;99.90
38118;DHT22;23928;47.562;7.508;2023-02-28T15:05:58;3.10;99.90
38118;DHT22;23928;47.562;7.508;2023-02-28T15:08:25;3.00;99.90
38118;DHT22;23928;47.562;7.508;2023-02-28T15:11:07;3.00;99.90
38118;DHT22;23928;47.562;7.508;2023-02-28T15:13:38;3.10;99.90
38118;DHT22;23928;47.562;7.508;2023-02-28T15:16:09;3.10;99.90
38118;DHT22;23928;47.562;7.508;2023-02-28T15:21:20;3.10;99.90
38118;DHT22;23928;47.562;7.508;2023-02-28T15:24:20;3.00;99.90
38118;DHT22;23928;47.562;7.508;2023-02-28T15:26:55;2.90;99.90
38118;DHT22;23928;47.562;7.508;2023-02-28T15:29:24;3.00;99.90
38118;DHT22;23928;47.562;7.508;2023-02-28T15:32:03;3.00;99.90
38118;DHT22;23928;47.562;7.508;2023-02-28T15:36:59;3.00;99.90
38118;DHT22;23928;47.562;7.508;2023-02-28T15:39:27;2.90;99.90
38118;DHT22;23928;47.562;7.508;2023-02-28T15:42:23;2.80;99.90
38118;DHT22;23928;47.562;7.508;2023-02-28T15:44:49;2.80;99.90
38118;DHT22;23928;47.562;7.508;2023-02-28T15:47:20;2.80;99.90
38118;DHT22;23928;47.562;7.508;2023-02-28T15:49:56;2.90;99.90
38118;DHT22;23928;47.562;7.508;2023-02-28T15:52:34;2.80;99.90
38118;DHT22;23928;47.562;7.508;2023-02-28T15:55:12;2.80;99.90
38118;DHT22;23928;47.562;7.508;2023-02-28T15:57:42;2.80;99.90
38118;DHT22;23928;47.562;7.508;2023-02-28T16:00:14;2.90;99.90
38118;DHT22;23928;47.562;7.508;2023-02-28T16:02:41;2.80;99.90
38118;DHT22;23928;47.562;7.508;2023-02-28T16:07:39;2.70;99.90
38118;DHT22;23928;47.562;7.508;2023-02-28T16:10:06;2.60;99.90
38118;DHT22;23928;47.562;7.508;2023-02-28T16:12:34;2.70;99.90
38118;DHT22;23928;47.562;7.508;2023-02-28T16:15:25;2.70;99.90
38118;DHT22;23928;47.562;7.508;2023-02-28T16:17:52;2.70;99.90
38118;DHT22;23928;47.562;7.508;2023-02-28T16:20:29;2.50;99.90
38118;DHT22;23928;47.562;7.508;2023-02-28T16:22:56;2.50;99.90
38118;DHT22;23928;47.562;7.508;2023-02-28T16:25:34;2.60;99.90
38118;DHT22;23928;47.562;7.508;2023-02-28T16:28:00;2.50;99.90
38118;DHT22;23928;47.562;7.508;2023-02-28T16:30:27;2.50;99.90
38118;DHT22;23928;47.562;7.508;2023-02-28T16:32:54;2.50;99.90
38118;DHT22;23928;47.562;7.508;2023-02-28T16:35:21;2.50;99.90
38118;DHT22;23928;47.562;7.508;2023-02-28T16:37:47;2.50;99.90
38118;DHT22;23928;47.562;7.508;2023-02-28T16:40:18;2.50;99.90
38118;DHT22;23928;47.562;7.508;2023-02-28T16:42:46;2.40;99.90
38118;DHT22;23928;47.562;7.508;2023-02-28T16:45:17;2.40;99.90
38118;DHT22;23928;47.562;7.508;2023-02-28T16:47:44;2.40;99.90
38118;DHT22;23928;47.562;7.508;2023-02-28T16:50:24;2.40;99.90
38118;DHT22;23928;47.562;7.508;2023-02-28T16:52:50;2.30;99.90
38118;DHT22;23928;47.562;7.508;2023-02-28T16:55:18;2.40;99.90
38118;DHT22;23928;47.562;7.508;2023-02-28T16:57:45;2.40;99.90
38118;DHT22;23928;47.562;7.508;2023-02-28T17:00:13;2.40;99.90
38118;DHT22;23928;47.562;7.508;2023-02-28T17:02:39;2.30;99.90
38118;DHT22;23928;47.562;7.508;2023-02-28T17:05:05;2.20;99.90
38118;DHT22;23928;47.562;7.508;2023-02-28T17:07:32;2.20;99.90
38118;DHT22;23928;47.562;7.508;2023-02-28T17:09:57;2.20;99.90
38118;DHT22;23928;47.562;7.508;2023-02-28T17:12:23;2.30;99.90
38118;DHT22;23928;47.562;7.508;2023-02-28T17:14:49;2.30;99.90
38118;DHT22;23928;47.562;7.508;2023-02-28T17:17:21;2.20;99.90
38118;DHT22;23928;47.562;7.508;2023-02-28T17:19:47;2.10;99.90
38118;DHT22;23928;47.562;7.508;2023-02-28T17:22:13;2.10;99.90
38118;DHT22;23928;47.562;7.508;2023-02-28T17:24:39;2.00;99.90
38118;DHT22;23928;47.562;7.508;2023-02-28T17:27:04;2.10;99.90
38118;DHT22;23928;47.562;7.508;2023-02-28T17:29:31;2.20;99.90
38118;DHT22;23928;47.562;7.508;2023-02-28T17:31:56;2.20;99.90
38118;DHT22;23928;47.562;7.508;2023-02-28T17:34:22;2.10;99.90
38118;DHT22;23928;47.562;7.508;2023-02-28T17:36:51;2.10;99.90
38118;DHT22;23928;47.562;7.508;2023-02-28T17:39:18;2.10;99.90
38118;DHT22;23928;47.562;7.508;2023-02-28T17:41:54;1.80;99.90
38118;DHT22;23928;47.562;7.508;2023-02-28T17:44:21;1.90;99.90
38118;DHT22;23928;47.562;7.508;2023-02-28T17:46:47;1.70;99.90
38118;DHT22;23928;47.562;7.508;2023-02-28T17:49:15;1.60;99.90
38118;DHT22;23928;47.562;7.508;2023-02-28T17:51:41;1.60;99.90
38118;DHT22;23928;47.562;7.508;2023-02-28T17:54:07;1.60;99.90
38118;DHT22;23928;47.562;7.508;2023-02-28T17:56:32;1.50;99.90
38118;DHT22;23928;47.562;7.508;2023-02-28T17:58:58;1.50;99.90
38118;DHT22;23928;47.562;7.508;2023-02-28T18:01:24;1.40;99.90
38118;DHT22;23928;47.562;7.508;2023-02-28T18:03:54;1.40;99.90
38118;DHT22;23928;47.562;7.508;2023-02-28T18:06:35;1.50;99.90
38118;DHT22;23928;47.562;7.508;2023-02-28T18:09:01;1.30;99.90
38118;DHT22;23928;47.562;7.508;2023-02-28T18:11:27;1.30;99.90
38118;DHT22;23928;47.562;7.508;2023-02-28T18:14:07;1.30;99.90